Time,TemperatureF,DewpointF,PressureIn,WindDirection,WindDirectionDegrees,WindSpeedMPH,WindSpeedGustMPH,Humidity,HourlyPrecipIn,Conditions,Clouds,dailyrainin,SoftwareType,DateUTC
2013-05-06 00:01:00,52.2,46.9,29.78,North,0,0.0,0.0,82,0.00,,,0.00,WUHU216HW,2013-05-06 05:01:00,
2013-05-06 00:06:00,52.2,46.9,29.78,North,0,0.0,0.0,82,0.00,,,0.00,WUHU216HW,2013-05-06 05:06:00,
2013-05-06 00:11:00,52.2,46.9,29.78,North,0,0.0,0.0,82,0.00,,,0.00,WUHU216HW,2013-05-06 05:11:00,
2013-05-06 00:16:00,52.2,46.9,29.78,North,0,0.0,0.0,82,0.00,,,0.00,WUHU216HW,2013-05-06 05:16:00,
2013-05-06 00:21:00,52.2,46.9,29.78,North,0,0.0,0.0,82,0.00,,,0.00,WUHU216HW,2013-05-06 05:21:00,
2013-05-06 00:26:00,52.0,46.7,29.78,North,0,0.0,0.0,82,0.00,,,0.00,WUHU216HW,2013-05-06 05:26:00,
2013-05-06 00:31:00,52.0,46.7,29.78,North,0,0.0,0.0,82,0.00,,,0.00,WUHU216HW,2013-05-06 05:31:00,
2013-05-06 00:36:00,52.0,46.7,29.78,North,0,0.0,0.0,82,0.00,,,0.00,WUHU216HW,2013-05-06 05:36:00,
2013-05-06 00:41:00,52.0,46.7,29.78,North,0,0.0,0.0,82,0.00,,,0.00,WUHU216HW,2013-05-06 05:41:00,
2013-05-06 00:46:00,51.8,46.5,29.78,North,0,0.0,0.0,82,0.00,,,0.00,WUHU216HW,2013-05-06 05:46:00,
2013-05-06 00:51:00,51.8,46.8,29.78,North,0,0.0,0.0,83,0.00,,,0.00,WUHU216HW,2013-05-06 05:51:00,
2013-05-06 00:56:00,51.7,46.6,29.78,North,0,0.0,0.0,83,0.00,,,0.00,WUHU216HW,2013-05-06 05:56:00,
2013-05-06 01:01:00,51.7,46.6,29.78,North,0,0.0,0.0,83,0.00,,,0.00,WUHU216HW,2013-05-06 06:01:00,
2013-05-06 01:06:00,51.5,46.4,29.77,North,0,0.0,0.0,83,0.00,,,0.00,WUHU216HW,2013-05-06 06:06:00,
2013-05-06 01:11:00,51.5,46.4,29.78,North,0,0.0,0.0,83,0.00,,,0.00,WUHU216HW,2013-05-06 06:11:00,
2013-05-06 01:16:00,51.7,46.6,29.78,North,0,0.0,0.0,83,0.00,,,0.00,WUHU216HW,2013-05-06 06:16:00,
2013-05-06 01:21:00,51.5,46.4,29.78,North,0,0.0,0.0,83,0.00,,,0.00,WUHU216HW,2013-05-06 06:21:00,
2013-05-06 01:26:00,51.5,46.4,29.78,North,0,0.0,0.0,83,0.00,,,0.00,WUHU216HW,2013-05-06 06:26:00,
2013-05-06 01:31:00,51.5,46.4,29.78,North,0,0.0,0.0,83,0.00,,,0.00,WUHU216HW,2013-05-06 06:31:00,
2013-05-06 01:36:00,51.3,46.6,29.78,North,0,0.0,0.0,84,0.00,,,0.00,WUHU216HW,2013-05-06 06:36:00,
2013-05-06 01:41:00,51.1,46.5,29.77,North,0,0.0,0.0,84,0.00,,,0.00,WUHU216HW,2013-05-06 06:41:00,
2013-05-06 01:46:00,51.1,46.5,29.77,North,0,0.0,0.0,84,0.00,,,0.00,WUHU216HW,2013-05-06 06:46:00,
2013-05-06 01:51:00,51.1,46.7,29.77,North,0,0.0,0.0,85,0.00,,,0.00,WUHU216HW,2013-05-06 06:51:00,
2013-05-06 01:56:00,50.9,46.5,29.77,North,0,0.0,0.0,85,0.00,,,0.00,WUHU216HW,2013-05-06 06:56:00,
2013-05-06 02:01:00,50.9,46.5,29.77,North,0,0.0,0.0,85,0.00,,,0.00,WUHU216HW,2013-05-06 07:01:00,
2013-05-06 02:06:00,50.8,46.4,29.77,North,0,0.0,0.0,85,0.00,,,0.00,WUHU216HW,2013-05-06 07:06:00,
2013-05-06 02:11:00,50.8,46.4,29.76,North,0,0.0,0.0,85,0.00,,,0.00,WUHU216HW,2013-05-06 07:11:00,
2013-05-06 02:15:00,50.8,46.4,29.76,North,0,0.0,0.0,85,0.00,,,0.00,WUHU216HW,2013-05-06 07:15:00,
2013-05-06 02:20:00,50.8,46.4,29.76,North,0,0.0,0.0,85,0.00,,,0.00,WUHU216HW,2013-05-06 07:20:00,
2013-05-06 02:25:00,50.6,46.2,29.76,North,0,0.0,0.0,85,0.00,,,0.00,WUHU216HW,2013-05-06 07:25:00,
2013-05-06 02:30:00,50.4,46.3,29.76,North,0,0.0,0.0,86,0.00,,,0.00,WUHU216HW,2013-05-06 07:30:00,
2013-05-06 02:35:00,50.4,46.3,29.76,North,0,0.0,0.0,86,0.00,,,0.00,WUHU216HW,2013-05-06 07:35:00,
2013-05-06 02:40:00,50.4,46.3,29.76,North,0,0.0,0.0,86,0.00,,,0.00,WUHU216HW,2013-05-06 07:40:00,
2013-05-06 02:45:00,50.2,46.1,29.76,North,0,0.0,0.0,86,0.00,,,0.00,WUHU216HW,2013-05-06 07:45:00,
2013-05-06 02:50:00,50.2,46.1,29.76,North,0,0.0,0.0,86,0.00,,,0.00,WUHU216HW,2013-05-06 07:50:00,
2013-05-06 02:55:00,50.2,46.1,29.76,North,0,0.0,0.0,86,0.00,,,0.00,WUHU216HW,2013-05-06 07:55:00,
2013-05-06 03:00:00,50.0,45.9,29.76,North,0,0.0,0.0,86,0.00,,,0.00,WUHU216HW,2013-05-06 08:00:00,
2013-05-06 03:05:00,50.0,45.9,29.76,North,0,0.0,0.0,86,0.00,,,0.00,WUHU216HW,2013-05-06 08:05:00,
2013-05-06 03:10:00,50.0,45.9,29.76,North,0,0.0,0.0,86,0.00,,,0.00,WUHU216HW,2013-05-06 08:10:00,
2013-05-06 03:15:00,50.0,46.3,29.76,North,0,0.0,0.0,87,0.00,,,0.00,WUHU216HW,2013-05-06 08:15:00,
2013-05-06 03:20:00,49.9,46.1,29.76,North,0,0.0,0.0,87,0.00,,,0.00,WUHU216HW,2013-05-06 08:20:00,
2013-05-06 03:25:00,49.9,45.8,29.76,North,0,0.0,0.0,86,0.00,,,0.00,WUHU216HW,2013-05-06 08:25:00,
2013-05-06 03:30:00,49.9,45.8,29.76,North,0,0.0,0.0,86,0.00,,,0.00,WUHU216HW,2013-05-06 08:30:00,
2013-05-06 03:35:00,49.9,45.8,29.76,North,0,0.0,0.0,86,0.00,,,0.00,WUHU216HW,2013-05-06 08:35:00,
2013-05-06 03:40:00,49.7,45.6,29.76,North,0,0.0,0.0,86,0.00,,,0.00,WUHU216HW,2013-05-06 08:40:00,
2013-05-06 03:45:00,49.7,45.6,29.76,North,0,0.0,0.0,86,0.00,,,0.00,WUHU216HW,2013-05-06 08:45:00,
2013-05-06 03:50:00,49.7,45.6,29.76,North,0,0.0,0.0,86,0.00,,,0.00,WUHU216HW,2013-05-06 08:50:00,
2013-05-06 03:55:00,49.7,45.6,29.76,North,0,0.0,0.0,86,0.00,,,0.00,WUHU216HW,2013-05-06 08:55:00,
2013-05-06 04:00:00,49.7,45.6,29.76,North,0,0.0,0.0,86,0.00,,,0.00,WUHU216HW,2013-05-06 09:00:00,
2013-05-06 04:05:00,49.7,45.6,29.77,North,0,0.0,0.0,86,0.00,,,0.00,WUHU216HW,2013-05-06 09:05:00,
2013-05-06 04:10:00,49.9,45.8,29.77,North,0,0.0,0.0,86,0.00,,,0.00,WUHU216HW,2013-05-06 09:10:00,
2013-05-06 04:15:00,49.7,45.6,29.77,North,0,0.0,0.0,86,0.00,,,0.00,WUHU216HW,2013-05-06 09:15:00,
2013-05-06 04:20:00,49.7,45.6,29.77,North,0,0.0,0.0,86,0.00,,,0.00,WUHU216HW,2013-05-06 09:20:00,
2013-05-06 04:25:00,49.7,45.6,29.77,North,0,0.0,0.0,86,0.00,,,0.00,WUHU216HW,2013-05-06 09:25:00,
2013-05-06 04:30:00,49.7,45.6,29.77,North,0,0.0,0.0,86,0.00,,,0.00,WUHU216HW,2013-05-06 09:30:00,
2013-05-06 04:35:00,49.7,45.6,29.77,North,0,0.0,0.0,86,0.00,,,0.00,WUHU216HW,2013-05-06 09:35:00,
2013-05-06 04:40:00,49.7,45.6,29.77,North,0,0.0,0.0,86,0.00,,,0.00,WUHU216HW,2013-05-06 09:40:00,
2013-05-06 04:45:00,49.7,45.9,29.77,North,0,0.0,0.0,87,0.00,,,0.00,WUHU216HW,2013-05-06 09:45:00,
2013-05-06 04:50:00,49.5,45.7,29.77,North,0,0.0,0.0,87,0.00,,,0.00,WUHU216HW,2013-05-06 09:50:00,
2013-05-06 04:55:00,49.5,45.7,29.77,North,0,0.0,0.0,87,0.00,,,0.00,WUHU216HW,2013-05-06 09:55:00,
2013-05-06 05:00:00,49.5,45.7,29.77,North,0,0.0,0.0,87,0.00,,,0.00,WUHU216HW,2013-05-06 10:00:00,
2013-05-06 05:05:00,49.3,45.5,29.77,North,0,0.0,0.0,87,0.00,,,0.00,WUHU216HW,2013-05-06 10:05:00,
2013-05-06 05:10:00,49.3,45.5,29.77,North,0,0.0,0.0,87,0.00,,,0.00,WUHU216HW,2013-05-06 10:10:00,
2013-05-06 05:15:00,49.3,45.9,29.77,North,0,0.0,0.0,88,0.00,,,0.00,WUHU216HW,2013-05-06 10:15:00,
2013-05-06 05:20:00,49.1,45.7,29.77,North,0,0.0,0.0,88,0.00,,,0.00,WUHU216HW,2013-05-06 10:20:00,
2013-05-06 05:25:00,49.1,45.7,29.77,North,0,0.0,0.0,88,0.00,,,0.00,WUHU216HW,2013-05-06 10:25:00,
2013-05-06 05:30:00,49.0,45.5,29.77,North,0,0.0,0.0,88,0.00,,,0.00,WUHU216HW,2013-05-06 10:30:00,
2013-05-06 05:35:00,49.1,45.7,29.77,North,0,0.0,0.0,88,0.00,,,0.00,WUHU216HW,2013-05-06 10:35:00,
2013-05-06 05:40:00,49.1,45.7,29.77,North,0,0.0,0.0,88,0.00,,,0.00,WUHU216HW,2013-05-06 10:40:00,
2013-05-06 05:45:00,49.0,45.5,29.78,North,0,0.0,0.0,88,0.00,,,0.00,WUHU216HW,2013-05-06 10:45:00,
2013-05-06 05:50:00,48.8,45.7,29.77,North,0,0.0,0.0,89,0.00,,,0.00,WUHU216HW,2013-05-06 10:50:00,
2013-05-06 05:55:00,48.8,45.4,29.77,North,0,0.0,0.0,88,0.00,,,0.00,WUHU216HW,2013-05-06 10:55:00,
2013-05-06 06:00:00,48.8,45.4,29.78,North,0,0.0,0.0,88,0.00,,,0.00,WUHU216HW,2013-05-06 11:00:00,
2013-05-06 06:05:00,48.8,45.4,29.77,North,0,0.0,0.0,88,0.00,,,0.00,WUHU216HW,2013-05-06 11:05:00,
2013-05-06 06:10:00,48.8,45.4,29.77,North,0,0.0,0.0,88,0.00,,,0.00,WUHU216HW,2013-05-06 11:10:00,
2013-05-06 06:15:00,48.8,45.4,29.78,North,0,0.0,0.0,88,0.00,,,0.00,WUHU216HW,2013-05-06 11:15:00,
2013-05-06 06:20:00,49.0,45.5,29.77,North,0,0.0,0.0,88,0.00,,,0.00,WUHU216HW,2013-05-06 11:20:00,
2013-05-06 06:25:00,49.0,45.5,29.78,North,0,0.0,0.0,88,0.00,,,0.00,WUHU216HW,2013-05-06 11:25:00,
2013-05-06 06:30:00,49.0,45.5,29.78,North,0,0.0,0.0,88,0.00,,,0.00,WUHU216HW,2013-05-06 11:30:00,
2013-05-06 06:35:00,49.0,45.5,29.78,North,0,0.0,0.0,88,0.00,,,0.00,WUHU216HW,2013-05-06 11:35:00,
2013-05-06 06:40:00,48.8,45.4,29.78,North,0,0.0,0.0,88,0.00,,,0.00,WUHU216HW,2013-05-06 11:40:00,
2013-05-06 06:45:00,48.6,45.2,29.78,North,0,0.0,0.0,88,0.00,,,0.00,WUHU216HW,2013-05-06 11:45:00,
2013-05-06 06:50:00,48.6,45.2,29.78,North,0,0.0,0.0,88,0.00,,,0.00,WUHU216HW,2013-05-06 11:50:00,
2013-05-06 06:55:00,48.6,45.2,29.78,North,0,0.0,0.0,88,0.00,,,0.00,WUHU216HW,2013-05-06 11:55:00,
2013-05-06 07:00:00,48.6,45.2,29.78,North,0,0.0,0.0,88,0.00,,,0.00,WUHU216HW,2013-05-06 12:00:00,
2013-05-06 07:05:00,48.6,45.2,29.78,North,0,0.0,0.0,88,0.00,,,0.00,WUHU216HW,2013-05-06 12:05:00,
2013-05-06 07:10:00,48.6,45.2,29.78,North,0,0.0,0.0,88,0.00,,,0.00,WUHU216HW,2013-05-06 12:10:00,
2013-05-06 07:15:00,48.6,45.2,29.79,North,0,0.0,0.0,88,0.00,,,0.00,WUHU216HW,2013-05-06 12:15:00,
2013-05-06 07:20:00,48.6,45.2,29.79,North,0,0.0,0.0,88,0.00,,,0.00,WUHU216HW,2013-05-06 12:20:00,
2013-05-06 07:25:00,48.6,45.2,29.79,North,0,0.0,0.0,88,0.00,,,0.00,WUHU216HW,2013-05-06 12:25:00,
2013-05-06 07:30:00,48.8,45.4,29.79,North,0,0.0,0.0,88,0.00,,,0.00,WUHU216HW,2013-05-06 12:30:00,
2013-05-06 07:35:00,49.0,45.5,29.79,North,0,0.0,0.0,88,0.00,,,0.00,WUHU216HW,2013-05-06 12:35:00,
2013-05-06 07:40:00,49.0,45.5,29.79,North,0,0.0,0.0,88,0.00,,,0.00,WUHU216HW,2013-05-06 12:40:00,
2013-05-06 07:45:00,49.0,45.5,29.79,North,0,0.0,0.0,88,0.00,,,0.00,WUHU216HW,2013-05-06 12:45:00,
2013-05-06 07:50:00,49.1,45.7,29.80,North,0,0.0,0.0,88,0.00,,,0.00,WUHU216HW,2013-05-06 12:50:00,
2013-05-06 07:55:00,49.1,45.4,29.80,North,0,0.0,0.0,87,0.00,,,0.00,WUHU216HW,2013-05-06 12:55:00,
2013-05-06 08:00:00,49.1,45.4,29.79,North,0,0.0,0.0,87,0.00,,,0.00,WUHU216HW,2013-05-06 13:00:00,
2013-05-06 08:05:00,49.1,45.4,29.80,North,0,0.0,0.0,87,0.00,,,0.00,WUHU216HW,2013-05-06 13:05:00,
2013-05-06 08:10:00,49.1,45.4,29.80,North,0,0.0,0.0,87,0.00,,,0.00,WUHU216HW,2013-05-06 13:10:00,
2013-05-06 08:15:00,49.1,45.4,29.80,North,0,0.0,0.0,87,0.00,,,0.00,WUHU216HW,2013-05-06 13:15:00,
2013-05-06 08:20:00,49.1,45.4,29.80,North,0,0.0,0.0,87,0.00,,,0.00,WUHU216HW,2013-05-06 13:20:00,
2013-05-06 08:25:00,49.3,45.5,29.80,North,0,0.0,0.0,87,0.00,,,0.00,WUHU216HW,2013-05-06 13:25:00,
2013-05-06 08:30:00,49.3,45.5,29.80,North,0,0.0,0.0,87,0.00,,,0.00,WUHU216HW,2013-05-06 13:30:00,
2013-05-06 08:35:00,49.3,45.5,29.80,North,0,0.0,0.0,87,0.00,,,0.00,WUHU216HW,2013-05-06 13:35:00,
2013-05-06 08:40:00,49.3,45.5,29.80,North,0,0.0,0.0,87,0.00,,,0.00,WUHU216HW,2013-05-06 13:40:00,
2013-05-06 08:45:00,49.3,45.5,29.80,North,0,0.0,0.0,87,0.00,,,0.00,WUHU216HW,2013-05-06 13:45:00,
2013-05-06 08:50:00,49.3,45.5,29.80,North,0,0.0,0.0,87,0.00,,,0.00,WUHU216HW,2013-05-06 13:50:00,
2013-05-06 08:55:00,49.3,45.5,29.80,North,0,0.0,0.0,87,0.00,,,0.00,WUHU216HW,2013-05-06 13:55:00,
2013-05-06 09:00:00,49.3,45.5,29.80,North,0,0.0,0.0,87,0.00,,,0.00,WUHU216HW,2013-05-06 14:00:00,
2013-05-06 09:05:00,49.3,45.5,29.80,North,0,0.0,0.0,87,0.00,,,0.00,WUHU216HW,2013-05-06 14:05:00,
2013-05-06 09:10:00,49.3,45.5,29.80,North,0,0.0,0.0,87,0.00,,,0.00,WUHU216HW,2013-05-06 14:10:00,
2013-05-06 09:15:00,49.3,45.5,29.80,North,0,0.0,0.0,87,0.00,,,0.00,WUHU216HW,2013-05-06 14:15:00,
2013-05-06 09:20:00,49.5,45.7,29.80,North,0,0.0,0.0,87,0.00,,,0.00,WUHU216HW,2013-05-06 14:20:00,
2013-05-06 09:25:00,49.5,45.7,29.81,North,0,0.0,0.0,87,0.00,,,0.00,WUHU216HW,2013-05-06 14:25:00,
2013-05-06 09:30:00,49.7,45.9,29.81,North,0,0.0,0.0,87,0.00,,,0.00,WUHU216HW,2013-05-06 14:30:00,
2013-05-06 09:35:00,49.7,45.6,29.80,North,0,0.0,0.0,86,0.00,,,0.00,WUHU216HW,2013-05-06 14:35:00,
2013-05-06 09:40:00,49.9,46.1,29.80,North,0,0.0,0.0,87,0.00,,,0.00,WUHU216HW,2013-05-06 14:40:00,
2013-05-06 09:45:00,49.7,45.9,29.81,North,0,0.0,0.0,87,0.00,,,0.00,WUHU216HW,2013-05-06 14:45:00,
2013-05-06 09:50:00,49.9,45.8,29.80,North,0,0.0,0.0,86,0.00,,,0.00,WUHU216HW,2013-05-06 14:50:00,
2013-05-06 09:55:00,50.0,46.3,29.80,North,0,0.0,0.0,87,0.00,,,0.00,WUHU216HW,2013-05-06 14:55:00,
2013-05-06 10:00:00,50.2,46.1,29.80,North,0,0.0,0.0,86,0.00,,,0.00,WUHU216HW,2013-05-06 15:00:00,
2013-05-06 10:05:00,50.4,46.3,29.80,North,0,0.0,0.0,86,0.00,,,0.00,WUHU216HW,2013-05-06 15:05:00,
2013-05-06 10:10:00,50.6,46.4,29.80,North,0,0.0,0.0,86,0.00,,,0.00,WUHU216HW,2013-05-06 15:10:00,
2013-05-06 10:15:00,50.8,46.6,29.80,North,0,0.0,0.0,86,0.00,,,0.00,WUHU216HW,2013-05-06 15:15:00,
2013-05-06 10:19:00,50.8,46.4,29.80,North,0,0.0,0.0,85,0.00,,,0.00,WUHU216HW,2013-05-06 15:19:00,
2013-05-06 10:24:00,50.8,46.1,29.80,North,0,0.0,0.0,84,0.00,,,0.00,WUHU216HW,2013-05-06 15:24:00,
2013-05-06 10:29:00,50.8,46.4,29.80,North,0,0.0,0.0,85,0.00,,,0.00,WUHU216HW,2013-05-06 15:29:00,
2013-05-06 10:34:00,50.9,46.5,29.80,North,0,0.0,0.0,85,0.00,,,0.00,WUHU216HW,2013-05-06 15:34:00,
2013-05-06 10:39:00,51.1,46.7,29.80,North,0,0.0,0.0,85,0.00,,,0.00,WUHU216HW,2013-05-06 15:39:00,
2013-05-06 10:44:00,51.3,46.6,29.80,North,0,0.0,0.0,84,0.00,,,0.00,WUHU216HW,2013-05-06 15:44:00,
2013-05-06 10:49:00,51.3,46.6,29.80,North,0,0.0,0.0,84,0.00,,,0.00,WUHU216HW,2013-05-06 15:49:00,
2013-05-06 10:54:00,51.1,46.1,29.80,North,0,0.0,0.0,83,0.00,,,0.00,WUHU216HW,2013-05-06 15:54:00,
2013-05-06 10:59:00,51.1,46.5,29.80,North,0,0.0,0.0,84,0.00,,,0.00,WUHU216HW,2013-05-06 15:59:00,
2013-05-06 11:04:00,51.5,46.8,29.80,North,0,0.0,0.0,84,0.00,,,0.00,WUHU216HW,2013-05-06 16:04:00,
2013-05-06 11:09:00,51.5,46.8,29.80,North,0,0.0,0.0,84,0.00,,,0.00,WUHU216HW,2013-05-06 16:09:00,
2013-05-06 11:14:00,51.5,46.4,29.80,North,0,0.0,0.0,83,0.00,,,0.00,WUHU216HW,2013-05-06 16:14:00,
2013-05-06 11:19:00,51.5,46.4,29.80,North,0,0.0,0.0,83,0.00,,,0.00,WUHU216HW,2013-05-06 16:19:00,
2013-05-06 11:24:00,51.5,46.4,29.80,North,0,0.0,0.0,83,0.00,,,0.00,WUHU216HW,2013-05-06 16:24:00,
2013-05-06 11:29:00,51.5,46.4,29.81,North,0,0.0,0.0,83,0.00,,,0.00,WUHU216HW,2013-05-06 16:29:00,
2013-05-06 11:34:00,51.5,46.4,29.81,North,0,0.0,0.0,83,0.00,,,0.00,WUHU216HW,2013-05-06 16:34:00,
2013-05-06 11:39:00,51.5,46.8,29.80,North,0,0.0,0.0,84,0.00,,,0.00,WUHU216HW,2013-05-06 16:39:00,
2013-05-06 11:44:00,51.8,47.2,29.80,North,0,0.0,0.0,84,0.00,,,0.00,WUHU216HW,2013-05-06 16:44:00,
2013-05-06 11:49:00,52.2,47.2,29.80,North,0,0.0,0.0,83,0.00,,,0.00,WUHU216HW,2013-05-06 16:49:00,
2013-05-06 11:54:00,52.2,46.9,29.80,North,0,0.0,0.0,82,0.00,,,0.00,WUHU216HW,2013-05-06 16:54:00,
2013-05-06 11:59:00,52.2,46.9,29.80,North,0,0.0,0.0,82,0.00,,,0.00,WUHU216HW,2013-05-06 16:59:00,
2013-05-06 12:04:00,52.2,46.9,29.80,North,0,0.0,0.0,82,0.00,,,0.00,WUHU216HW,2013-05-06 17:04:00,
2013-05-06 12:09:00,52.6,47.5,29.80,North,0,0.0,0.0,83,0.00,,,0.00,WUHU216HW,2013-05-06 17:09:00,
2013-05-06 12:14:00,52.9,47.6,29.80,North,0,0.0,0.0,82,0.00,,,0.00,WUHU216HW,2013-05-06 17:14:00,
2013-05-06 12:19:00,52.9,47.6,29.80,North,0,0.0,0.0,82,0.00,,,0.00,WUHU216HW,2013-05-06 17:19:00,
2013-05-06 12:24:00,53.1,47.8,29.80,North,0,0.0,0.0,82,0.00,,,0.00,WUHU216HW,2013-05-06 17:24:00,
2013-05-06 12:29:00,53.3,48.0,29.79,North,0,0.0,0.0,82,0.00,,,0.00,WUHU216HW,2013-05-06 17:29:00,
2013-05-06 12:34:00,53.6,48.3,29.79,North,0,0.0,0.0,82,0.00,,,0.00,WUHU216HW,2013-05-06 17:34:00,
2013-05-06 12:39:00,54.0,48.3,29.79,North,0,0.0,0.0,81,0.00,,,0.00,WUHU216HW,2013-05-06 17:39:00,
2013-05-06 12:44:00,54.2,48.2,29.79,North,0,0.0,0.0,80,0.00,,,0.00,WUHU216HW,2013-05-06 17:44:00,
2013-05-06 12:49:00,54.4,48.7,29.79,North,0,0.0,0.0,81,0.00,,,0.00,WUHU216HW,2013-05-06 17:49:00,
2013-05-06 12:54:00,54.9,48.5,29.79,North,0,0.0,0.0,79,0.00,,,0.00,WUHU216HW,2013-05-06 17:54:00,
2013-05-06 12:59:00,54.9,48.2,29.79,North,0,0.0,0.0,78,0.00,,,0.00,WUHU216HW,2013-05-06 17:59:00,
2013-05-06 13:04:00,55.1,48.7,29.79,North,0,0.0,0.0,79,0.00,,,0.00,WUHU216HW,2013-05-06 18:04:00,
2013-05-06 13:09:00,55.3,48.8,29.79,North,0,0.0,0.0,79,0.00,,,0.00,WUHU216HW,2013-05-06 18:09:00,
2013-05-06 13:14:00,56.0,49.9,29.78,North,0,0.0,0.0,80,0.00,,,0.00,WUHU216HW,2013-05-06 18:14:00,
2013-05-06 13:19:00,56.2,49.3,29.78,North,0,0.0,0.0,78,0.00,,,0.00,WUHU216HW,2013-05-06 18:19:00,
2013-05-06 13:24:00,56.3,48.8,29.78,North,0,0.0,0.0,76,0.00,,,0.00,WUHU216HW,2013-05-06 18:24:00,
2013-05-06 13:29:00,56.5,50.0,29.78,North,0,0.0,0.0,79,0.00,,,0.00,WUHU216HW,2013-05-06 18:29:00,
2013-05-06 13:34:00,57.2,49.7,29.78,North,0,0.0,0.0,76,0.00,,,0.00,WUHU216HW,2013-05-06 18:34:00,
2013-05-06 13:39:00,57.4,49.9,29.78,North,0,0.0,0.0,76,0.00,,,0.00,WUHU216HW,2013-05-06 18:39:00,
2013-05-06 13:44:00,57.8,49.9,29.78,North,0,0.0,0.0,75,0.00,,,0.00,WUHU216HW,2013-05-06 18:44:00,
2013-05-06 13:49:00,58.0,50.4,29.78,North,0,0.0,0.0,76,0.00,,,0.00,WUHU216HW,2013-05-06 18:49:00,
2013-05-06 13:54:00,58.0,50.0,29.78,North,0,0.0,0.0,75,0.00,,,0.00,WUHU216HW,2013-05-06 18:54:00,
2013-05-06 13:59:00,58.3,50.8,29.77,North,0,0.0,0.0,76,0.00,,,0.00,WUHU216HW,2013-05-06 18:59:00,
2013-05-06 14:04:00,58.7,50.8,29.78,North,0,0.0,0.0,75,0.00,,,0.00,WUHU216HW,2013-05-06 19:04:00,
2013-05-06 14:09:00,59.0,51.1,29.77,North,0,0.0,0.0,75,0.00,,,0.00,WUHU216HW,2013-05-06 19:09:00,
2013-05-06 14:14:00,59.2,50.2,29.77,North,0,0.0,0.0,72,0.00,,,0.00,WUHU216HW,2013-05-06 19:14:00,
2013-05-06 14:19:00,59.4,51.1,29.77,North,0,0.0,0.0,74,0.00,,,0.00,WUHU216HW,2013-05-06 19:19:00,
2013-05-06 14:24:00,59.8,51.1,29.77,North,0,0.0,0.0,73,0.00,,,0.00,WUHU216HW,2013-05-06 19:24:00,
2013-05-06 14:29:00,59.9,51.3,29.77,North,0,0.0,0.0,73,0.00,,,0.00,WUHU216HW,2013-05-06 19:29:00,
2013-05-06 14:34:00,60.5,52.2,29.76,North,0,0.0,0.0,74,0.00,,,0.00,WUHU216HW,2013-05-06 19:34:00,
2013-05-06 14:39:00,60.8,52.2,29.76,North,0,0.0,0.0,73,0.00,,,0.00,WUHU216HW,2013-05-06 19:39:00,
2013-05-06 14:44:00,61.0,52.4,29.76,North,0,0.0,0.0,73,0.00,,,0.00,WUHU216HW,2013-05-06 19:44:00,
2013-05-06 14:49:00,61.6,52.5,29.76,North,0,0.0,0.0,72,0.00,,,0.00,WUHU216HW,2013-05-06 19:49:00,
2013-05-06 14:54:00,61.7,52.3,29.76,North,0,0.0,0.0,71,0.00,,,0.00,WUHU216HW,2013-05-06 19:54:00,
2013-05-06 14:59:00,61.7,52.3,29.75,North,0,0.0,0.0,71,0.00,,,0.00,WUHU216HW,2013-05-06 19:59:00,
2013-05-06 15:04:00,61.7,51.9,29.75,North,0,0.0,0.0,70,0.00,,,0.00,WUHU216HW,2013-05-06 20:04:00,
2013-05-06 15:09:00,61.7,51.5,29.75,North,0,0.0,0.0,69,0.00,,,0.00,WUHU216HW,2013-05-06 20:09:00,
2013-05-06 15:14:00,61.9,52.1,29.75,North,0,0.0,0.0,70,0.00,,,0.00,WUHU216HW,2013-05-06 20:14:00,
2013-05-06 15:19:00,62.3,52.4,29.75,North,0,0.0,0.0,70,0.00,,,0.00,WUHU216HW,2013-05-06 20:19:00,
2013-05-06 15:24:00,62.3,52.0,29.74,North,0,0.0,0.0,69,0.00,,,0.00,WUHU216HW,2013-05-06 20:24:00,
2013-05-06 15:29:00,62.5,52.6,29.74,North,0,0.0,0.0,70,0.00,,,0.00,WUHU216HW,2013-05-06 20:29:00,
2013-05-06 15:34:00,62.8,52.9,29.74,North,0,0.0,0.0,70,0.00,,,0.00,WUHU216HW,2013-05-06 20:34:00,
2013-05-06 15:39:00,63.0,53.1,29.73,North,0,0.0,0.0,70,0.00,,,0.00,WUHU216HW,2013-05-06 20:39:00,
2013-05-06 15:44:00,63.2,52.8,29.73,North,0,0.0,0.0,69,0.00,,,0.00,WUHU216HW,2013-05-06 20:44:00,
2013-05-06 15:49:00,63.2,53.3,29.73,North,0,0.0,0.0,70,0.00,,,0.00,WUHU216HW,2013-05-06 20:49:00,
2013-05-06 15:54:00,63.5,52.4,29.73,North,0,0.0,0.0,67,0.00,,,0.00,WUHU216HW,2013-05-06 20:54:00,
2013-05-06 15:59:00,63.7,53.8,29.73,North,0,0.0,0.0,70,0.00,,,0.00,WUHU216HW,2013-05-06 20:59:00,
2013-05-06 16:04:00,64.1,53.3,29.72,North,0,0.0,0.0,68,0.00,,,0.00,WUHU216HW,2013-05-06 21:04:00,
2013-05-06 16:09:00,64.4,54.1,29.72,North,0,0.0,0.0,69,0.00,,,0.00,WUHU216HW,2013-05-06 21:09:00,
2013-05-06 16:14:00,64.6,52.6,29.72,North,0,0.0,0.0,65,0.00,,,0.00,WUHU216HW,2013-05-06 21:14:00,
2013-05-06 16:19:00,64.8,54.0,29.72,North,0,0.0,0.0,68,0.00,,,0.00,WUHU216HW,2013-05-06 21:19:00,
2013-05-06 16:24:00,64.8,53.6,29.71,North,0,0.0,0.0,67,0.00,,,0.00,WUHU216HW,2013-05-06 21:24:00,
2013-05-06 16:29:00,65.2,53.9,29.71,North,0,0.0,0.0,67,0.00,,,0.00,WUHU216HW,2013-05-06 21:29:00,
2013-05-06 16:34:00,65.3,54.6,29.71,North,0,0.0,0.0,68,0.00,,,0.00,WUHU216HW,2013-05-06 21:34:00,
2013-05-06 16:39:00,65.5,53.0,29.71,North,0,0.0,0.0,64,0.00,,,0.00,WUHU216HW,2013-05-06 21:39:00,
2013-05-06 16:44:00,65.5,53.8,29.71,North,0,0.0,0.0,66,0.00,,,0.00,WUHU216HW,2013-05-06 21:44:00,
2013-05-06 16:48:00,65.5,54.3,29.71,North,0,0.0,0.0,67,0.00,,,0.00,WUHU216HW,2013-05-06 21:48:00,
2013-05-06 16:53:00,65.9,54.5,29.70,North,0,0.0,0.0,67,0.00,,,0.00,WUHU216HW,2013-05-06 21:53:00,
2013-05-06 16:58:00,65.9,53.7,29.71,North,0,0.0,0.0,65,0.00,,,0.00,WUHU216HW,2013-05-06 21:58:00,
2013-05-06 17:03:00,65.7,53.6,29.70,North,0,0.0,0.0,65,0.00,,,0.00,WUHU216HW,2013-05-06 22:03:00,
2013-05-06 17:08:00,65.9,53.7,29.70,North,0,0.0,0.0,65,0.00,,,0.00,WUHU216HW,2013-05-06 22:08:00,
2013-05-06 17:13:00,65.9,53.7,29.70,North,0,0.0,0.0,65,0.00,,,0.00,WUHU216HW,2013-05-06 22:13:00,
2013-05-06 17:18:00,66.1,53.9,29.70,North,0,0.0,0.0,65,0.00,,,0.00,WUHU216HW,2013-05-06 22:18:00,
2013-05-06 17:23:00,66.4,52.6,29.70,North,0,0.0,0.0,61,0.00,,,0.00,WUHU216HW,2013-05-06 22:23:00,
2013-05-06 17:28:00,66.4,53.8,29.70,North,0,0.0,0.0,64,0.00,,,0.00,WUHU216HW,2013-05-06 22:28:00,
2013-05-06 17:33:00,66.6,53.7,29.70,North,0,0.0,0.0,63,0.00,,,0.00,WUHU216HW,2013-05-06 22:33:00,
2013-05-06 17:38:00,66.8,52.9,29.70,North,0,0.0,0.0,61,0.00,,,0.00,WUHU216HW,2013-05-06 22:38:00,
2013-05-06 17:43:00,66.8,53.7,29.69,North,0,0.0,0.0,63,0.00,,,0.00,WUHU216HW,2013-05-06 22:43:00,
2013-05-06 17:48:00,66.6,53.7,29.69,North,0,0.0,0.0,63,0.00,,,0.00,WUHU216HW,2013-05-06 22:48:00,
2013-05-06 17:53:00,66.6,53.2,29.69,North,0,0.0,0.0,62,0.00,,,0.00,WUHU216HW,2013-05-06 22:53:00,
2013-05-06 17:58:00,66.6,53.7,29.69,North,0,0.0,0.0,63,0.00,,,0.00,WUHU216HW,2013-05-06 22:58:00,
2013-05-06 18:03:00,67.0,53.9,29.69,North,0,0.0,0.0,63,0.00,,,0.00,WUHU216HW,2013-05-06 23:03:00,
2013-05-06 18:08:00,67.0,53.9,29.69,North,0,0.0,0.0,63,0.00,,,0.00,WUHU216HW,2013-05-06 23:08:00,
2013-05-06 18:13:00,67.0,53.9,29.69,North,0,0.0,0.0,63,0.00,,,0.00,WUHU216HW,2013-05-06 23:13:00,
2013-05-06 18:18:00,66.8,53.7,29.69,North,0,0.0,0.0,63,0.00,,,0.00,WUHU216HW,2013-05-06 23:18:00,
2013-05-06 18:23:00,66.4,53.5,29.69,North,0,0.0,0.0,63,0.00,,,0.00,WUHU216HW,2013-05-06 23:23:00,
2013-05-06 18:28:00,66.2,53.3,29.69,North,0,0.0,0.0,63,0.00,,,0.00,WUHU216HW,2013-05-06 23:28:00,
2013-05-06 18:33:00,66.2,53.6,29.69,North,0,0.0,0.0,64,0.00,,,0.00,WUHU216HW,2013-05-06 23:33:00,
2013-05-06 18:38:00,66.2,53.6,29.69,North,0,0.0,0.0,64,0.00,,,0.00,WUHU216HW,2013-05-06 23:38:00,
2013-05-06 18:43:00,66.4,53.5,29.69,North,0,0.0,0.0,63,0.00,,,0.00,WUHU216HW,2013-05-06 23:43:00,
2013-05-06 18:48:00,66.2,53.3,29.69,North,0,0.0,0.0,63,0.00,,,0.00,WUHU216HW,2013-05-06 23:48:00,
2013-05-06 18:53:00,66.2,53.6,29.69,North,0,0.0,0.0,64,0.00,,,0.00,WUHU216HW,2013-05-06 23:53:00,
2013-05-06 18:58:00,66.2,53.6,29.69,North,0,0.0,0.0,64,0.00,,,0.00,WUHU216HW,2013-05-06 23:58:00,
2013-05-06 19:03:00,66.2,53.6,29.69,North,0,0.0,0.0,64,0.00,,,0.00,WUHU216HW,2013-05-07 00:03:00,
2013-05-06 19:08:00,66.2,53.6,29.69,North,0,0.0,0.0,64,0.00,,,0.00,WUHU216HW,2013-05-07 00:08:00,
2013-05-06 19:13:00,65.9,53.4,29.69,North,0,0.0,0.0,64,0.00,,,0.00,WUHU216HW,2013-05-07 00:13:00,
2013-05-06 19:18:00,65.9,53.4,29.69,North,0,0.0,0.0,64,0.00,,,0.00,WUHU216HW,2013-05-07 00:18:00,
2013-05-06 19:23:00,65.7,53.2,29.69,North,0,0.0,0.0,64,0.00,,,0.00,WUHU216HW,2013-05-07 00:23:00,
2013-05-06 19:28:00,65.5,53.0,29.69,North,0,0.0,0.0,64,0.00,,,0.00,WUHU216HW,2013-05-07 00:28:00,
2013-05-06 19:33:00,65.5,53.0,29.69,North,0,0.0,0.0,64,0.00,,,0.00,WUHU216HW,2013-05-07 00:33:00,
2013-05-06 19:38:00,65.3,52.4,29.70,North,0,0.0,0.0,63,0.00,,,0.00,WUHU216HW,2013-05-07 00:38:00,
2013-05-06 19:43:00,65.2,52.7,29.69,North,0,0.0,0.0,64,0.00,,,0.00,WUHU216HW,2013-05-07 00:43:00,
2013-05-06 19:48:00,65.2,52.7,29.69,North,0,0.0,0.0,64,0.00,,,0.00,WUHU216HW,2013-05-07 00:48:00,
2013-05-06 19:53:00,65.0,52.5,29.69,North,0,0.0,0.0,64,0.00,,,0.00,WUHU216HW,2013-05-07 00:53:00,
2013-05-06 19:58:00,65.0,52.5,29.69,North,0,0.0,0.0,64,0.00,,,0.00,WUHU216HW,2013-05-07 00:58:00,
2013-05-06 20:03:00,64.8,52.8,29.70,North,0,0.0,0.0,65,0.00,,,0.00,WUHU216HW,2013-05-07 01:03:00,
2013-05-06 20:08:00,64.8,52.8,29.70,North,0,0.0,0.0,65,0.00,,,0.00,WUHU216HW,2013-05-07 01:08:00,
2013-05-06 20:13:00,64.8,52.8,29.70,North,0,0.0,0.0,65,0.00,,,0.00,WUHU216HW,2013-05-07 01:13:00,
2013-05-06 20:18:00,64.8,52.8,29.70,North,0,0.0,0.0,65,0.00,,,0.00,WUHU216HW,2013-05-07 01:18:00,
2013-05-06 20:23:00,64.6,52.6,29.70,North,0,0.0,0.0,65,0.00,,,0.00,WUHU216HW,2013-05-07 01:23:00,
2013-05-06 20:28:00,64.3,52.2,29.70,North,0,0.0,0.0,65,0.00,,,0.00,WUHU216HW,2013-05-07 01:28:00,
2013-05-06 20:33:00,63.9,51.8,29.70,North,0,0.0,0.0,65,0.00,,,0.00,WUHU216HW,2013-05-07 01:33:00,
2013-05-06 20:38:00,63.7,52.1,29.70,North,0,0.0,0.0,66,0.00,,,0.00,WUHU216HW,2013-05-07 01:38:00,
2013-05-06 20:43:00,63.4,51.8,29.70,North,0,0.0,0.0,66,0.00,,,0.00,WUHU216HW,2013-05-07 01:43:00,
2013-05-06 20:48:00,63.2,51.6,29.71,North,0,0.0,0.0,66,0.00,,,0.00,WUHU216HW,2013-05-07 01:48:00,
2013-05-06 20:53:00,63.0,51.8,29.71,North,0,0.0,0.0,67,0.00,,,0.00,WUHU216HW,2013-05-07 01:53:00,
2013-05-06 20:58:00,62.5,51.3,29.70,North,0,0.0,0.0,67,0.00,,,0.00,WUHU216HW,2013-05-07 01:58:00,
2013-05-06 21:03:00,62.1,51.4,29.71,North,0,0.0,0.0,68,0.00,,,0.00,WUHU216HW,2013-05-07 02:03:00,
2013-05-06 21:08:00,61.9,51.3,29.71,North,0,0.0,0.0,68,0.00,,,0.00,WUHU216HW,2013-05-07 02:08:00,
2013-05-06 21:13:00,61.7,51.5,29.71,North,0,0.0,0.0,69,0.00,,,0.00,WUHU216HW,2013-05-07 02:13:00,
2013-05-06 21:18:00,61.6,51.4,29.71,North,0,0.0,0.0,69,0.00,,,0.00,WUHU216HW,2013-05-07 02:18:00,
2013-05-06 21:23:00,61.2,51.0,29.71,North,0,0.0,0.0,69,0.00,,,0.00,WUHU216HW,2013-05-07 02:23:00,
2013-05-06 21:28:00,61.0,50.9,29.72,North,0,0.0,0.0,69,0.00,,,0.00,WUHU216HW,2013-05-07 02:28:00,
2013-05-06 21:33:00,60.8,50.7,29.72,North,0,0.0,0.0,69,0.00,,,0.00,WUHU216HW,2013-05-07 02:33:00,
2013-05-06 21:38:00,60.5,50.3,29.72,North,0,0.0,0.0,69,0.00,,,0.00,WUHU216HW,2013-05-07 02:38:00,
2013-05-06 21:43:00,60.3,50.1,29.72,North,0,0.0,0.0,69,0.00,,,0.00,WUHU216HW,2013-05-07 02:43:00,
2013-05-06 21:48:00,60.1,50.4,29.72,North,0,0.0,0.0,70,0.00,,,0.00,WUHU216HW,2013-05-07 02:48:00,
2013-05-06 21:53:00,59.9,50.2,29.72,North,0,0.0,0.0,70,0.00,,,0.00,WUHU216HW,2013-05-07 02:53:00,
2013-05-06 21:58:00,59.8,50.0,29.72,North,0,0.0,0.0,70,0.00,,,0.00,WUHU216HW,2013-05-07 02:58:00,
2013-05-06 22:03:00,59.6,50.2,29.72,North,0,0.0,0.0,71,0.00,,,0.00,WUHU216HW,2013-05-07 03:03:00,
2013-05-06 22:08:00,59.4,50.0,29.72,North,0,0.0,0.0,71,0.00,,,0.00,WUHU216HW,2013-05-07 03:08:00,
2013-05-06 22:13:00,59.0,50.0,29.72,North,0,0.0,0.0,72,0.00,,,0.00,WUHU216HW,2013-05-07 03:13:00,
2013-05-06 22:18:00,58.9,49.9,29.73,North,0,0.0,0.0,72,0.00,,,0.00,WUHU216HW,2013-05-07 03:18:00,
2013-05-06 22:23:00,58.9,49.9,29.73,North,0,0.0,0.0,72,0.00,,,0.00,WUHU216HW,2013-05-07 03:23:00,
2013-05-06 22:28:00,58.9,49.9,29.73,North,0,0.0,0.0,72,0.00,,,0.00,WUHU216HW,2013-05-07 03:28:00,
2013-05-06 22:33:00,58.7,49.7,29.73,North,0,0.0,0.0,72,0.00,,,0.00,WUHU216HW,2013-05-07 03:33:00,
2013-05-06 22:38:00,58.7,49.7,29.73,North,0,0.0,0.0,72,0.00,,,0.00,WUHU216HW,2013-05-07 03:38:00,
2013-05-06 22:43:00,58.5,49.9,29.73,North,0,0.0,0.0,73,0.00,,,0.00,WUHU216HW,2013-05-07 03:43:00,
2013-05-06 22:48:00,58.3,49.7,29.73,North,0,0.0,0.0,73,0.00,,,0.00,WUHU216HW,2013-05-07 03:48:00,
2013-05-06 22:53:00,58.1,49.5,29.73,North,0,0.0,0.0,73,0.00,,,0.00,WUHU216HW,2013-05-07 03:53:00,
2013-05-06 22:58:00,58.0,49.3,29.73,North,0,0.0,0.0,73,0.00,,,0.00,WUHU216HW,2013-05-07 03:58:00,
2013-05-06 23:01:00,57.8,49.1,29.73,North,0,0.0,0.0,73,0.00,,,0.00,WUHU216HW,2013-05-07 04:01:00,
2013-05-06 23:06:00,57.8,49.1,29.73,North,0,0.0,0.0,73,0.00,,,0.00,WUHU216HW,2013-05-07 04:06:00,
2013-05-06 23:11:00,57.6,49.3,29.73,North,0,0.0,0.0,74,0.00,,,0.00,WUHU216HW,2013-05-07 04:11:00,
2013-05-06 23:16:00,57.6,49.3,29.73,North,0,0.0,0.0,74,0.00,,,0.00,WUHU216HW,2013-05-07 04:16:00,
2013-05-06 23:21:00,57.2,49.0,29.73,North,0,0.0,0.0,74,0.00,,,0.00,WUHU216HW,2013-05-07 04:21:00,
2013-05-06 23:26:00,57.2,49.0,29.73,North,0,0.0,0.0,74,0.00,,,0.00,WUHU216HW,2013-05-07 04:26:00,
2013-05-06 23:31:00,57.1,48.8,29.73,North,0,0.0,0.0,74,0.00,,,0.00,WUHU216HW,2013-05-07 04:31:00,
2013-05-06 23:36:00,56.9,49.0,29.73,North,0,0.0,0.0,75,0.00,,,0.00,WUHU216HW,2013-05-07 04:36:00,
2013-05-06 23:41:00,56.5,48.6,29.73,North,0,0.0,0.0,75,0.00,,,0.00,WUHU216HW,2013-05-07 04:41:00,
2013-05-06 23:46:00,56.3,48.8,29.73,North,0,0.0,0.0,76,0.00,,,0.00,WUHU216HW,2013-05-07 04:46:00,
2013-05-06 23:51:00,56.2,48.6,29.72,North,0,0.0,0.0,76,0.00,,,0.00,WUHU216HW,2013-05-07 04:51:00,
2013-05-06 23:56:00,56.0,48.5,29.72,North,0,0.0,0.0,76,0.00,,,0.00,WUHU216HW,2013-05-07 04:56:00,